createdAt,value
2022-10-31T00:01:27.606Z,14.75
2022-10-31T00:03:53.856Z,14.86
2022-10-31T00:06:20.111Z,14.64
2022-10-31T00:08:46.342Z,14.62
2022-10-31T00:11:12.568Z,14.72
2022-10-31T00:13:38.796Z,14.86
2022-10-31T00:16:05.027Z,14.93
2022-10-31T00:18:31.263Z,14.92
2022-10-31T00:20:57.492Z,14.78
2022-10-31T00:23:23.722Z,14.79
2022-10-31T00:25:49.948Z,14.67
2022-10-31T00:28:16.231Z,14.63
2022-10-31T00:30:42.516Z,14.77
2022-10-31T00:33:08.746Z,14.81
2022-10-31T00:35:34.988Z,14.91
2022-10-31T00:38:01.246Z,14.63
2022-10-31T00:40:27.461Z,14.70
2022-10-31T00:42:53.773Z,14.71
2022-10-31T00:45:20.036Z,14.73
2022-10-31T00:47:46.263Z,14.78
2022-10-31T00:50:12.509Z,14.80
2022-10-31T00:52:38.730Z,14.73
2022-10-31T00:55:04.950Z,14.75
2022-10-31T00:57:31.194Z,14.79
2022-10-31T00:59:57.434Z,14.76
2022-10-31T01:02:23.783Z,14.67
2022-10-31T01:04:50.097Z,14.66
2022-10-31T01:07:16.331Z,14.56
2022-10-31T01:09:42.568Z,14.61
2022-10-31T01:12:08.816Z,14.80
2022-10-31T01:14:35.024Z,14.84
2022-10-31T01:17:01.258Z,14.85
2022-10-31T01:19:27.472Z,14.98
2022-10-31T01:21:53.698Z,14.98
2022-10-31T01:24:19.927Z,15.03
2022-10-31T01:26:46.156Z,15.01
2022-10-31T01:29:12.389Z,14.78
2022-10-31T01:31:38.613Z,14.70
2022-10-31T01:34:04.847Z,14.70
2022-10-31T01:36:31.067Z,14.85
2022-10-31T01:38:57.293Z,14.94
2022-10-31T01:41:23.526Z,14.89
2022-10-31T01:43:49.746Z,14.89
2022-10-31T01:46:15.967Z,14.94
2022-10-31T01:48:43.389Z,15.03
2022-10-31T01:51:09.913Z,14.96
2022-10-31T01:53:36.141Z,14.92
2022-10-31T01:56:02.453Z,14.72
2022-10-31T01:58:28.676Z,14.64
2022-10-31T02:00:55.021Z,14.64
2022-10-31T02:03:21.294Z,14.69
2022-10-31T02:05:47.535Z,14.58
2022-10-31T02:08:13.775Z,14.53
2022-10-31T02:10:40.001Z,14.55
2022-10-31T02:13:06.252Z,14.78
2022-10-31T02:15:32.474Z,14.78
2022-10-31T02:17:58.985Z,14.85
2022-10-31T02:20:25.484Z,14.85
2022-10-31T02:22:51.715Z,14.94
2022-10-31T02:25:17.933Z,14.94
2022-10-31T02:27:44.168Z,14.95
2022-10-31T02:30:10.416Z,14.93
2022-10-31T02:32:36.647Z,15.05
2022-10-31T02:35:02.895Z,15.00
2022-10-31T02:37:29.128Z,14.75
2022-10-31T02:39:55.358Z,14.50
2022-10-31T02:42:21.588Z,14.72
2022-10-31T02:44:47.817Z,14.88
2022-10-31T02:47:14.038Z,14.89
2022-10-31T02:49:40.272Z,14.92
2022-10-31T02:52:06.508Z,14.98
2022-10-31T02:54:32.736Z,14.97
2022-10-31T02:56:58.959Z,14.95
2022-10-31T02:59:25.182Z,14.98
2022-10-31T03:01:51.516Z,14.95
2022-10-31T03:04:17.854Z,14.86
2022-10-31T03:06:44.090Z,14.97
2022-10-31T03:09:10.320Z,15.08
2022-10-31T03:11:36.558Z,14.98
2022-10-31T03:14:02.804Z,14.99
2022-10-31T03:16:29.017Z,14.97
2022-10-31T03:18:55.259Z,14.97
2022-10-31T03:21:21.482Z,14.98
2022-10-31T03:23:47.721Z,15.00
2022-10-31T03:26:13.961Z,14.91
2022-10-31T03:28:40.197Z,14.87
2022-10-31T03:31:07.443Z,14.85
2022-10-31T03:33:33.936Z,14.94
2022-10-31T03:36:00.177Z,14.86
2022-10-31T03:38:26.385Z,14.82
2022-10-31T03:40:52.623Z,14.85
2022-10-31T03:43:18.940Z,14.87
2022-10-31T03:45:45.203Z,14.85
2022-10-31T03:48:11.425Z,14.74
2022-10-31T03:50:37.719Z,14.81
2022-10-31T03:53:03.981Z,14.80
2022-10-31T03:55:30.208Z,14.80
2022-10-31T03:57:56.498Z,14.80
2022-10-31T04:00:22.743Z,14.77
2022-10-31T04:02:49.018Z,14.67
2022-10-31T04:05:15.263Z,14.73
2022-10-31T04:07:41.487Z,14.68
2022-10-31T04:10:07.733Z,14.65
2022-10-31T04:12:53.568Z,14.65
2022-10-31T04:15:19.793Z,14.82
2022-10-31T04:17:46.013Z,14.72
2022-10-31T04:20:12.240Z,14.71
2022-10-31T04:22:38.463Z,14.68
2022-10-31T04:25:04.688Z,14.83
2022-10-31T04:27:30.905Z,14.67
2022-10-31T04:29:57.133Z,14.63
2022-10-31T04:32:23.357Z,14.70
2022-10-31T04:34:49.606Z,14.68
2022-10-31T04:37:15.838Z,14.68
2022-10-31T04:39:42.048Z,14.66
2022-10-31T04:42:08.287Z,14.68
2022-10-31T04:44:34.518Z,14.66
2022-10-31T04:47:00.724Z,14.52
2022-10-31T04:49:26.951Z,14.72
2022-10-31T04:51:53.190Z,14.70
2022-10-31T04:54:19.840Z,14.63
2022-10-31T04:56:46.071Z,14.70
2022-10-31T04:59:12.313Z,14.70
2022-10-31T05:01:38.646Z,14.64
2022-10-31T05:04:04.971Z,14.73
2022-10-31T05:06:31.203Z,14.70
2022-10-31T05:08:57.437Z,14.60
2022-10-31T05:11:23.669Z,14.70
2022-10-31T05:13:49.893Z,14.42
2022-10-31T05:16:16.115Z,14.38
2022-10-31T05:18:42.331Z,14.45
2022-10-31T05:21:08.549Z,14.62
2022-10-31T05:23:34.785Z,14.60
2022-10-31T05:26:01.015Z,14.70
2022-10-31T05:28:27.252Z,14.84
2022-10-31T05:30:53.488Z,14.88
2022-10-31T05:33:19.696Z,14.91
2022-10-31T05:35:45.925Z,14.85
2022-10-31T05:38:12.163Z,14.79
2022-10-31T05:40:38.390Z,14.81
2022-10-31T05:43:04.615Z,14.88
2022-10-31T05:45:30.851Z,14.93
2022-10-31T05:47:57.437Z,14.73
2022-10-31T05:50:24.009Z,14.75
2022-10-31T05:52:50.226Z,14.82
2022-10-31T05:55:16.442Z,14.61
2022-10-31T05:57:42.659Z,14.47
2022-10-31T06:00:08.876Z,14.54
2022-10-31T06:02:35.119Z,14.53
2022-10-31T06:05:01.461Z,14.58
2022-10-31T06:07:27.788Z,14.72
2022-10-31T06:09:54.023Z,14.79
2022-10-31T06:12:20.243Z,14.76
2022-10-31T06:14:46.481Z,14.62
2022-10-31T06:17:12.703Z,14.36
2022-10-31T06:19:38.995Z,14.36
2022-10-31T06:22:05.239Z,14.44
2022-10-31T06:24:31.476Z,14.36
2022-10-31T06:26:59.300Z,14.39
2022-10-31T06:29:25.662Z,14.34
2022-10-31T06:31:52.132Z,14.45
2022-10-31T06:34:18.456Z,14.47
2022-10-31T06:36:44.746Z,14.51
2022-10-31T06:39:11.104Z,14.51
2022-10-31T06:41:37.474Z,14.47
2022-10-31T06:44:06.514Z,14.45
2022-10-31T06:46:35.178Z,14.46
2022-10-31T06:49:01.483Z,14.65
2022-10-31T06:51:27.779Z,14.64
2022-10-31T06:53:54.066Z,14.49
2022-10-31T06:56:20.468Z,14.64
2022-10-31T06:58:47.023Z,14.68
2022-10-31T07:01:13.498Z,14.56
2022-10-31T07:03:39.860Z,14.30
2022-10-31T07:06:06.108Z,14.66
2022-10-31T07:08:32.339Z,14.80
2022-10-31T07:10:58.610Z,14.81
2022-10-31T07:13:24.887Z,14.54
2022-10-31T07:15:51.481Z,14.51
2022-10-31T07:18:17.717Z,14.79
2022-10-31T07:20:44.000Z,14.86
2022-10-31T07:23:10.343Z,15.16
2022-10-31T07:25:36.628Z,15.36
2022-10-31T07:28:03.297Z,15.40
2022-10-31T07:30:30.098Z,15.54
2022-10-31T07:32:56.324Z,15.42
2022-10-31T07:35:22.571Z,15.43
2022-10-31T07:37:48.870Z,15.26
2022-10-31T07:40:15.247Z,15.34
2022-10-31T07:42:41.888Z,15.41
2022-10-31T07:45:08.207Z,15.64
2022-10-31T07:47:34.466Z,15.81
2022-10-31T07:50:00.787Z,15.92
2022-10-31T07:52:27.109Z,16.14
2022-10-31T07:54:53.343Z,16.24
2022-10-31T07:57:24.173Z,16.21
2022-10-31T07:59:51.439Z,16.33
2022-10-31T08:02:17.782Z,16.47
2022-10-31T08:04:44.192Z,16.46
2022-10-31T08:07:11.670Z,16.17
2022-10-31T08:09:38.088Z,16.17
2022-10-31T08:12:04.379Z,16.43
2022-10-31T08:14:30.619Z,16.51
2022-10-31T08:16:56.839Z,16.48
2022-10-31T08:19:23.095Z,16.59
2022-10-31T08:21:49.326Z,16.63
2022-10-31T08:24:15.574Z,16.86
2022-10-31T08:26:41.801Z,17.07
2022-10-31T08:29:08.027Z,17.17
2022-10-31T08:31:37.591Z,17.35
2022-10-31T08:34:05.211Z,17.29
2022-10-31T08:36:31.439Z,17.52
2022-10-31T08:39:01.593Z,17.69
2022-10-31T08:41:28.424Z,17.82
2022-10-31T08:43:54.651Z,17.63
2022-10-31T08:46:20.910Z,17.26
2022-10-31T08:48:47.142Z,17.57
2022-10-31T08:51:13.416Z,17.71
2022-10-31T08:53:39.668Z,17.76
2022-10-31T08:56:05.954Z,17.80
2022-10-31T08:58:36.286Z,17.85
2022-10-31T09:01:05.493Z,17.88
2022-10-31T09:03:31.783Z,17.92
2022-10-31T09:05:58.194Z,18.08
2022-10-31T09:08:26.022Z,17.96
2022-10-31T09:10:52.308Z,17.92
2022-10-31T09:13:19.961Z,17.77
2022-10-31T09:15:46.199Z,17.81
2022-10-31T09:18:12.448Z,17.78
2022-10-31T09:20:38.691Z,17.77
2022-10-31T09:23:04.932Z,17.75
2022-10-31T09:25:31.189Z,17.73
2022-10-31T09:27:57.782Z,17.71
2022-10-31T09:30:24.413Z,17.73
2022-10-31T09:32:50.677Z,17.75
2022-10-31T09:35:19.168Z,17.68
2022-10-31T09:37:48.012Z,17.67
2022-10-31T09:40:14.261Z,17.57
2022-10-31T09:42:40.491Z,17.77
2022-10-31T09:45:06.728Z,17.99
2022-10-31T09:47:32.942Z,18.04
2022-10-31T09:49:59.255Z,18.22
2022-10-31T09:52:25.574Z,18.52
2022-10-31T09:54:51.902Z,18.78
2022-10-31T09:57:18.277Z,19.10
2022-10-31T09:59:44.542Z,19.12
2022-10-31T10:02:10.791Z,19.36
2022-10-31T10:04:37.114Z,19.55
2022-10-31T10:07:03.374Z,19.62
2022-10-31T10:09:29.611Z,19.73
2022-10-31T10:11:55.921Z,19.76
2022-10-31T10:14:22.214Z,19.45
2022-10-31T10:16:48.496Z,19.37
2022-10-31T10:19:14.894Z,19.46
2022-10-31T10:21:41.180Z,19.57
2022-10-31T10:24:07.423Z,19.69
2022-10-31T10:26:33.672Z,19.78
2022-10-31T10:28:59.903Z,19.86
2022-10-31T10:31:26.195Z,19.89
2022-10-31T10:33:52.428Z,19.92
2022-10-31T10:36:18.700Z,19.86
2022-10-31T10:38:44.957Z,19.85
2022-10-31T10:41:11.216Z,19.93
2022-10-31T10:43:37.517Z,19.78
2022-10-31T10:46:06.498Z,19.75
2022-10-31T10:48:35.494Z,19.74
2022-10-31T10:51:01.778Z,19.69
2022-10-31T10:53:28.043Z,19.73
2022-10-31T10:55:54.287Z,19.77
2022-10-31T10:58:20.519Z,19.78
2022-10-31T11:00:46.876Z,19.69
2022-10-31T11:03:13.197Z,19.65
2022-10-31T11:05:39.448Z,19.66
2022-10-31T11:08:05.686Z,19.67
2022-10-31T11:10:31.912Z,19.61
2022-10-31T11:12:58.414Z,19.51
2022-10-31T11:15:24.934Z,19.36
2022-10-31T11:17:51.176Z,19.51
2022-10-31T11:20:19.073Z,19.57
2022-10-31T11:22:45.595Z,19.55
2022-10-31T11:25:11.840Z,19.52
2022-10-31T11:27:38.069Z,19.58
2022-10-31T11:30:04.305Z,19.41
2022-10-31T11:32:30.543Z,19.58
2022-10-31T11:34:56.796Z,19.60
2022-10-31T11:37:23.040Z,19.40
2022-10-31T11:39:49.294Z,19.54
2022-10-31T11:42:15.535Z,19.65
2022-10-31T11:44:41.776Z,19.62
2022-10-31T11:47:08.000Z,19.40
2022-10-31T11:49:34.244Z,19.18
2022-10-31T11:52:00.484Z,19.47
2022-10-31T11:54:26.733Z,19.62
2022-10-31T11:56:52.956Z,19.62
2022-10-31T11:59:19.188Z,19.67
2022-10-31T12:01:45.519Z,19.66
2022-10-31T12:04:11.870Z,19.67
2022-10-31T12:06:38.095Z,19.74
2022-10-31T12:09:04.331Z,19.68
2022-10-31T12:11:30.603Z,19.76
2022-10-31T12:14:01.181Z,19.78
2022-10-31T12:16:29.836Z,19.84
2022-10-31T12:18:56.065Z,19.83
2022-10-31T12:21:22.310Z,19.94
2022-10-31T12:23:48.555Z,20.07
2022-10-31T12:26:14.774Z,19.72
2022-10-31T12:28:44.852Z,19.45
2022-10-31T12:31:14.189Z,19.55
2022-10-31T12:33:40.424Z,19.97
2022-10-31T12:36:08.577Z,20.08
2022-10-31T12:38:37.301Z,20.06
2022-10-31T12:41:03.562Z,20.01
2022-10-31T12:43:29.827Z,20.12
2022-10-31T12:45:56.076Z,19.75
2022-10-31T12:48:22.326Z,19.92
2022-10-31T12:50:48.564Z,19.77
2022-10-31T12:53:14.830Z,19.91
2022-10-31T12:55:41.090Z,19.90
2022-10-31T12:58:07.325Z,19.95
2022-10-31T13:00:33.573Z,19.99
2022-10-31T13:02:59.809Z,20.01
2022-10-31T13:05:26.043Z,20.03
2022-10-31T13:07:52.282Z,20.09
2022-10-31T13:10:18.508Z,19.98
2022-10-31T13:12:44.725Z,20.04
2022-10-31T13:15:10.960Z,20.04
2022-10-31T13:17:37.185Z,20.07
2022-10-31T13:20:03.423Z,19.97
2022-10-31T13:22:29.658Z,19.82
2022-10-31T13:24:55.890Z,19.75
2022-10-31T13:27:22.123Z,19.13
2022-10-31T13:29:48.362Z,19.17
2022-10-31T13:32:14.599Z,19.16
2022-10-31T13:34:40.832Z,19.09
2022-10-31T13:37:07.055Z,19.02
2022-10-31T13:39:33.283Z,19.02
2022-10-31T13:41:59.655Z,18.86
2022-10-31T13:44:25.952Z,18.79
2022-10-31T13:46:52.269Z,18.73
2022-10-31T13:49:18.688Z,18.65
2022-10-31T13:51:44.957Z,18.64
2022-10-31T13:54:11.178Z,18.66
2022-10-31T13:56:37.417Z,18.69
2022-10-31T13:59:03.722Z,18.56
2022-10-31T14:01:30.064Z,18.65
2022-10-31T14:04:12.328Z,18.54
2022-10-31T14:06:40.034Z,18.47
2022-10-31T14:09:06.340Z,18.36
2022-10-31T14:11:36.108Z,18.29
2022-10-31T14:14:04.802Z,18.19
2022-10-31T14:16:31.075Z,18.12
2022-10-31T14:18:57.347Z,18.14
2022-10-31T14:21:23.652Z,18.02
2022-10-31T14:23:52.480Z,18.05
2022-10-31T14:26:20.468Z,18.06
2022-10-31T14:28:46.695Z,17.95
2022-10-31T14:31:12.935Z,17.89
2022-10-31T14:33:39.160Z,17.77
2022-10-31T14:36:05.389Z,17.74
2022-10-31T14:38:31.643Z,17.71
2022-10-31T14:40:57.903Z,17.83
2022-10-31T14:43:24.144Z,17.88
2022-10-31T14:45:50.383Z,17.49
2022-10-31T14:48:16.644Z,17.32
2022-10-31T14:50:42.873Z,17.50
2022-10-31T14:53:09.104Z,17.74
2022-10-31T14:55:36.598Z,17.89
2022-10-31T14:58:02.842Z,17.90
2022-10-31T15:00:29.074Z,18.02
2022-10-31T15:02:55.333Z,18.21
2022-10-31T15:05:21.549Z,18.29
2022-10-31T15:07:47.788Z,18.39
2022-10-31T15:10:14.019Z,18.44
2022-10-31T15:12:40.313Z,18.33
2022-10-31T15:15:06.548Z,18.24
2022-10-31T15:17:32.845Z,18.14
2022-10-31T15:19:59.074Z,18.12
2022-10-31T15:22:25.313Z,18.04
2022-10-31T15:24:51.539Z,17.92
2022-10-31T15:27:17.765Z,17.81
2022-10-31T15:29:44.014Z,17.76
2022-10-31T15:32:10.248Z,17.64
2022-10-31T15:34:36.737Z,17.69
2022-10-31T15:37:03.068Z,17.65
2022-10-31T15:39:29.376Z,17.58
2022-10-31T15:41:55.605Z,17.33
2022-10-31T15:44:21.848Z,17.10
2022-10-31T15:46:48.092Z,16.73
2022-10-31T15:49:14.335Z,16.31
2022-10-31T15:51:40.596Z,16.78
2022-10-31T15:54:06.839Z,16.79
2022-10-31T15:56:33.079Z,16.72
2022-10-31T15:58:59.480Z,16.68
2022-10-31T16:01:25.808Z,16.63
2022-10-31T16:03:52.160Z,16.53
2022-10-31T16:06:18.397Z,16.58
2022-10-31T16:08:44.632Z,16.63
2022-10-31T16:11:10.868Z,16.59
2022-10-31T16:13:37.103Z,16.57
2022-10-31T16:16:32.911Z,16.40
2022-10-31T16:18:49.594Z,16.19
2022-10-31T16:21:15.833Z,16.15
2022-10-31T16:23:42.067Z,16.00
2022-10-31T16:26:08.291Z,15.98
2022-10-31T16:28:37.164Z,15.97
2022-10-31T16:31:05.883Z,15.85
2022-10-31T16:33:32.122Z,15.88
2022-10-31T16:36:09.562Z,15.75
2022-10-31T16:38:42.332Z,15.64
2022-10-31T16:41:08.547Z,15.55
2022-10-31T16:43:34.777Z,15.54
2022-10-31T16:46:01.065Z,15.60
2022-10-31T16:48:27.397Z,15.63
2022-10-31T16:50:53.641Z,15.50
2022-10-31T16:53:19.919Z,15.64
2022-10-31T16:55:46.152Z,15.53
2022-10-31T16:58:12.393Z,15.46
2022-10-31T17:00:38.651Z,15.44
2022-10-31T17:03:04.872Z,15.35
2022-10-31T17:05:31.114Z,14.69
2022-10-31T17:07:57.473Z,14.83
2022-10-31T17:10:23.825Z,15.07
2022-10-31T17:12:50.064Z,15.12
2022-10-31T17:15:16.309Z,15.12
2022-10-31T17:17:42.530Z,15.11
2022-10-31T17:20:08.810Z,15.18
2022-10-31T17:22:35.109Z,15.31
2022-10-31T17:25:01.382Z,15.23
2022-10-31T17:27:27.625Z,15.16
2022-10-31T17:29:53.860Z,15.14
2022-10-31T17:32:20.098Z,15.22
2022-10-31T17:34:46.331Z,15.13
2022-10-31T17:37:12.569Z,15.13
2022-10-31T17:39:38.810Z,15.32
2022-10-31T17:42:05.043Z,15.42
2022-10-31T17:44:31.282Z,15.31
2022-10-31T17:46:57.491Z,15.18
2022-10-31T17:49:23.727Z,14.85
2022-10-31T17:51:50.966Z,15.17
2022-10-31T17:54:17.207Z,15.17
2022-10-31T17:56:43.451Z,15.34
2022-10-31T17:59:09.680Z,15.18
2022-10-31T18:01:36.032Z,15.28
2022-10-31T18:04:02.418Z,15.23
2022-10-31T18:06:28.651Z,15.18
2022-10-31T18:08:54.874Z,15.02
2022-10-31T18:11:21.108Z,15.21
2022-10-31T18:13:47.356Z,15.09
2022-10-31T18:16:13.589Z,14.94
2022-10-31T18:18:39.837Z,15.07
2022-10-31T18:21:06.068Z,15.23
2022-10-31T18:23:32.304Z,15.31
2022-10-31T18:25:58.529Z,15.25
2022-10-31T18:28:24.755Z,15.13
2022-10-31T18:30:50.982Z,15.00
2022-10-31T18:33:17.240Z,14.96
2022-10-31T18:35:43.467Z,14.91
2022-10-31T18:38:10.127Z,14.81
2022-10-31T18:40:36.550Z,14.81
2022-10-31T18:43:02.798Z,14.71
2022-10-31T18:48:15.274Z,14.55
2022-10-31T18:50:41.519Z,14.63
2022-10-31T18:53:07.763Z,14.67
2022-10-31T18:55:34.001Z,14.69
2022-10-31T18:58:00.224Z,14.71
2022-10-31T19:00:26.458Z,14.68
2022-10-31T19:02:55.508Z,14.46
2022-10-31T19:05:22.643Z,14.61
2022-10-31T19:07:48.861Z,14.65
2022-10-31T19:10:15.107Z,14.59
2022-10-31T19:12:41.333Z,14.58
2022-10-31T19:15:07.573Z,14.59
2022-10-31T19:17:33.806Z,14.54
2022-10-31T19:20:00.058Z,14.64
2022-10-31T19:22:26.302Z,14.62
2022-10-31T19:24:52.532Z,14.61
2022-10-31T19:27:18.776Z,14.51
2022-10-31T19:29:45.021Z,14.49
2022-10-31T19:32:11.262Z,14.47
2022-10-31T19:34:37.481Z,14.43
2022-10-31T19:37:03.709Z,14.48
2022-10-31T19:39:29.942Z,14.36
2022-10-31T19:41:56.173Z,14.40
2022-10-31T19:44:22.408Z,14.26
2022-10-31T19:46:53.580Z,14.39
2022-10-31T19:49:20.245Z,14.52
2022-10-31T19:51:46.487Z,14.43
2022-10-31T19:54:12.705Z,14.36
2022-10-31T19:56:38.932Z,14.48
2022-10-31T19:59:05.156Z,14.32
2022-10-31T20:01:31.502Z,14.40
2022-10-31T20:03:57.832Z,14.42
2022-10-31T20:06:24.041Z,14.19
2022-10-31T20:08:50.274Z,14.23
2022-10-31T20:11:16.490Z,14.24
2022-10-31T20:13:42.722Z,14.16
2022-10-31T20:16:08.946Z,14.18
2022-10-31T20:18:35.203Z,14.32
2022-10-31T20:21:04.724Z,14.01
2022-10-31T20:23:31.432Z,14.10
2022-10-31T20:25:57.676Z,14.12
2022-10-31T20:28:23.901Z,14.13
2022-10-31T20:30:50.151Z,14.09
2022-10-31T20:33:16.388Z,14.13
2022-10-31T20:35:42.622Z,14.12
2022-10-31T20:38:08.844Z,14.09
2022-10-31T20:40:35.073Z,13.99
2022-10-31T20:43:01.303Z,13.93
2022-10-31T20:45:27.514Z,14.00
2022-10-31T20:47:53.749Z,14.18
2022-10-31T20:50:19.976Z,14.08
2022-10-31T20:52:46.221Z,13.95
2022-10-31T20:55:12.467Z,14.00
2022-10-31T20:57:38.694Z,13.99
2022-10-31T21:00:04.933Z,13.94
2022-10-31T21:02:31.226Z,14.14
2022-10-31T21:04:57.551Z,14.22
2022-10-31T21:07:23.782Z,14.21
2022-10-31T21:09:50.015Z,14.14
2022-10-31T21:12:16.309Z,14.23
2022-10-31T21:14:42.537Z,14.30
2022-10-31T21:17:08.779Z,14.18
2022-10-31T21:19:35.030Z,14.03
2022-10-31T21:22:01.257Z,14.10
2022-10-31T21:24:27.488Z,14.20
2022-10-31T21:26:53.728Z,14.18
2022-10-31T21:29:19.958Z,14.09
2022-10-31T21:31:46.195Z,14.05
2022-10-31T21:34:12.434Z,14.13
2022-10-31T21:36:38.655Z,14.01
2022-10-31T21:39:04.912Z,14.01
2022-10-31T21:41:31.133Z,14.08
2022-10-31T21:43:57.360Z,14.14
2022-10-31T21:46:23.595Z,14.01
2022-10-31T21:48:49.826Z,13.94
2022-10-31T21:51:16.052Z,13.91
2022-10-31T21:53:42.288Z,13.87
2022-10-31T21:56:08.503Z,13.90
2022-10-31T21:58:37.695Z,13.69
2022-10-31T22:01:05.183Z,13.66
2022-10-31T22:03:31.549Z,13.64
2022-10-31T22:06:00.638Z,13.70
2022-10-31T22:08:27.129Z,13.59
2022-10-31T22:10:53.355Z,13.54
2022-10-31T22:13:19.586Z,13.53
2022-10-31T22:15:45.810Z,13.58
2022-10-31T22:18:12.112Z,13.61
2022-10-31T22:20:38.338Z,13.71
2022-10-31T22:23:04.565Z,13.78
2022-10-31T22:25:30.812Z,13.77
2022-10-31T22:27:57.052Z,13.76
2022-10-31T22:30:23.272Z,13.76
2022-10-31T22:32:49.517Z,13.76
2022-10-31T22:35:15.761Z,13.64
2022-10-31T22:37:41.989Z,13.63
2022-10-31T22:40:08.217Z,13.72
2022-10-31T22:42:34.444Z,13.83
2022-10-31T22:45:00.673Z,13.88
2022-10-31T22:47:26.898Z,13.99
2022-10-31T22:49:53.139Z,13.97
2022-10-31T22:52:19.365Z,14.06
2022-10-31T22:54:45.594Z,14.05
2022-10-31T22:57:11.888Z,13.84
2022-10-31T22:59:38.101Z,13.86
2022-10-31T23:02:07.211Z,14.00
2022-10-31T23:04:36.329Z,13.97
2022-10-31T23:07:02.550Z,13.80
2022-10-31T23:09:28.838Z,13.90
2022-10-31T23:11:55.088Z,13.98
2022-10-31T23:14:21.366Z,13.87
2022-10-31T23:16:47.629Z,13.79
2022-10-31T23:19:13.876Z,13.88
2022-10-31T23:21:40.112Z,13.95
2022-10-31T23:24:06.353Z,13.90
2022-10-31T23:26:32.583Z,13.94
2022-10-31T23:28:58.813Z,14.01
2022-10-31T23:31:25.037Z,14.11
2022-10-31T23:33:51.272Z,14.08
2022-10-31T23:36:17.502Z,14.06
2022-10-31T23:38:43.727Z,14.08
2022-10-31T23:41:09.959Z,14.07
2022-10-31T23:43:36.172Z,14.13
2022-10-31T23:46:02.406Z,14.06
2022-10-31T23:48:28.642Z,14.02
2022-10-31T23:50:54.879Z,14.09
2022-10-31T23:53:21.108Z,14.10
2022-10-31T23:55:47.344Z,14.00
2022-10-31T23:58:13.573Z,13.90
